Time;durP1;ratioP1;P1;durP2;ratioP2;P2;SDS_P1;SDS_P2;PMS_P1;PMS_P2;Temp;Humidity;BMP_temperature;BMP_pressure;BME280_temperature;BME280_humidity;BME280_pressure;Samples;Min_cycle;Max_cycle;Signal;HPM_P1;HPM_P2
2023/06/29 00:00:59;;;;;;;48.87;39.97;;;18.90;99.90;;;;;;4925838;28;20466;-80
2023/06/29 00:03:25;;;;;;;45.47;39.15;;;19.00;99.90;;;;;;4930720;28;20464;-81
2023/06/29 00:05:55;;;;;;;46.22;37.63;;;19.10;99.90;;;;;;4917453;28;21003;-78
2023/06/29 00:08:22;;;;;;;47.80;37.65;;;19.00;99.90;;;;;;4992245;28;20440;-80
2023/06/29 00:10:48;;;;;;;47.58;37.72;;;19.00;99.90;;;;;;4934055;28;20524;-82
2023/06/29 00:13:13;;;;;;;47.78;38.58;;;18.90;99.90;;;;;;4902454;29;20480;-81
2023/06/29 00:15:40;;;;;;;49.88;38.97;;;18.90;99.90;;;;;;4917068;28;20437;-80
2023/06/29 00:18:05;;;;;;;44.03;38.63;;;18.90;99.90;;;;;;4934965;29;20507;-82
2023/06/29 00:20:31;;;;;;;49.70;40.43;;;19.00;99.90;;;;;;4918785;29;20465;-82
2023/06/29 00:22:59;;;;;;;50.13;40.90;;;18.90;99.90;;;;;;4950710;28;20908;-80
2023/06/29 00:25:24;;;;;;;50.78;41.00;;;19.00;99.90;;;;;;4942876;28;20429;-80
2023/06/29 00:27:50;;;;;;;52.35;41.17;;;19.00;99.90;;;;;;4919096;29;20445;-82
2023/06/29 00:30:16;;;;;;;48.20;40.80;;;19.00;99.90;;;;;;4906250;29;20454;-82
2023/06/29 00:32:42;;;;;;;53.45;40.92;;;18.90;99.90;;;;;;4973748;28;20432;-80
2023/06/29 00:35:08;;;;;;;49.88;41.13;;;18.90;99.90;;;;;;5021271;28;20935;-82
2023/06/29 00:37:34;;;;;;;52.67;42.55;;;18.90;99.90;;;;;;4932390;29;20432;-80
2023/06/29 00:39:59;;;;;;;51.38;40.88;;;18.90;99.90;;;;;;4919593;29;21195;-81
2023/06/29 00:42:25;;;;;;;50.20;41.07;;;18.90;99.90;;;;;;4919201;28;20433;-81
2023/06/29 00:44:51;;;;;;;52.87;42.47;;;19.00;99.90;;;;;;4911925;28;20437;-79
2023/06/29 00:47:16;;;;;;;50.33;40.47;;;18.90;99.90;;;;;;4924710;29;20431;-80
2023/06/29 00:49:42;;;;;;;51.70;42.25;;;18.90;99.90;;;;;;4900691;29;20419;-81
2023/06/29 00:52:08;;;;;;;50.23;42.97;;;19.00;99.90;;;;;;4944494;28;20429;-80
2023/06/29 00:54:33;;;;;;;52.03;41.40;;;18.80;99.90;;;;;;4949982;28;20437;-80
2023/06/29 00:57:00;;;;;;;51.17;41.08;;;18.80;99.90;;;;;;4924920;28;20445;-81
2023/06/29 00:59:26;;;;;;;51.95;41.55;;;19.00;99.90;;;;;;4920999;28;20510;-82
2023/06/29 01:01:52;;;;;;;56.72;43.30;;;18.90;99.90;;;;;;4935373;28;20432;-80
2023/06/29 01:04:25;;;;;;;54.25;43.60;;;18.90;99.90;;;;;;4895483;29;20432;-80
2023/06/29 01:06:59;;;;;;;50.58;42.10;;;18.90;99.90;;;;;;4978505;23;20445;-79
2023/06/29 01:09:25;;;;;;;49.83;41.60;;;18.90;99.90;;;;;;4993828;28;20427;-80
2023/06/29 01:11:52;;;;;;;52.88;44.08;;;18.80;99.90;;;;;;4981084;28;20447;-79
2023/06/29 01:14:22;;;;;;;54.25;43.60;;;18.80;99.90;;;;;;4938038;28;20802;-80
2023/06/29 01:16:50;;;;;;;54.08;43.53;;;18.90;99.90;;;;;;4936254;28;20435;-80
2023/06/29 01:19:23;;;;;;;54.15;43.50;;;18.80;99.90;;;;;;4935483;28;20489;-80
2023/06/29 01:22:10;;;;;;;53.47;42.40;;;18.60;99.90;;;;;;4923662;28;20757;-79
2023/06/29 01:24:39;;;;;;;53.88;43.67;;;18.90;99.90;;;;;;4938155;28;20431;-80
2023/06/29 01:27:08;;;;;;;52.88;43.72;;;18.90;99.90;;;;;;4935972;28;20493;-81
2023/06/29 01:29:35;;;;;;;50.38;41.90;;;18.80;99.90;;;;;;4936032;28;20439;-80
2023/06/29 01:32:03;;;;;;;53.65;44.85;;;18.90;99.90;;;;;;4936754;28;20443;-79
2023/06/29 01:34:31;;;;;;;51.03;42.90;;;18.80;99.90;;;;;;4921229;28;20437;-80
2023/06/29 01:37:04;;;;;;;55.08;45.15;;;18.90;99.90;;;;;;4937459;28;20484;-81
2023/06/29 01:40:05;;;;;;;55.60;44.75;;;19.00;99.90;;;;;;4929547;28;20490;-80
2023/06/29 01:42:32;;;;;;;51.65;44.00;;;18.90;99.90;;;;;;4936638;28;20438;-80
2023/06/29 01:45:04;;;;;;;53.85;45.38;;;18.90;99.90;;;;;;4935013;28;20458;-80
2023/06/29 01:47:30;;;;;;;53.40;44.67;;;19.00;99.90;;;;;;4933860;28;20503;-79
2023/06/29 01:49:56;;;;;;;57.27;46.70;;;18.80;99.90;;;;;;4935546;28;20451;-80
2023/06/29 01:52:22;;;;;;;57.27;43.67;;;18.90;99.90;;;;;;4923749;28;20435;-80
2023/06/29 01:54:47;;;;;;;52.03;42.50;;;18.90;99.90;;;;;;4940817;28;20412;-80
2023/06/29 01:57:13;;;;;;;52.63;44.50;;;18.90;99.90;;;;;;4939572;28;20454;-81
2023/06/29 01:59:39;;;;;;;60.58;44.90;;;18.90;99.90;;;;;;4940182;28;20490;-81
2023/06/29 02:02:06;;;;;;;60.35;46.58;;;18.80;99.90;;;;;;4943383;28;20436;-81
2023/06/29 02:04:32;;;;;;;51.35;43.47;;;18.90;99.90;;;;;;4940157;28;20427;-80
2023/06/29 02:06:58;;;;;;;53.05;43.78;;;18.90;99.90;;;;;;4939905;28;20455;-82
2023/06/29 02:09:24;;;;;;;52.80;44.43;;;18.80;99.90;;;;;;4942555;28;20423;-82
2023/06/29 02:11:49;;;;;;;50.70;41.63;;;18.80;99.90;;;;;;5040209;28;20474;-81
2023/06/29 02:14:18;;;;;;;56.33;44.77;;;18.80;99.90;;;;;;4930826;29;21154;-82
2023/06/29 02:16:47;;;;;;;49.47;42.45;;;18.90;99.90;;;;;;4940087;29;20432;-80
2023/06/29 02:19:12;;;;;;;52.57;42.37;;;18.90;99.90;;;;;;4906177;28;20911;-81
2023/06/29 02:21:38;;;;;;;50.80;41.60;;;18.90;99.90;;;;;;4938424;28;20475;-82
2023/06/29 02:24:04;;;;;;;53.33;42.35;;;18.80;99.90;;;;;;4938989;29;20431;-83
2023/06/29 02:26:30;;;;;;;57.70;42.28;;;18.80;99.90;;;;;;4937823;28;20931;-81
2023/06/29 02:28:56;;;;;;;46.30;40.28;;;18.90;99.90;;;;;;4937827;28;20470;-81
2023/06/29 02:31:21;;;;;;;47.60;40.88;;;18.80;99.90;;;;;;4936422;29;20442;-79
2023/06/29 02:33:48;;;;;;;49.03;40.97;;;18.80;99.90;;;;;;4936903;29;20650;-82
2023/06/29 02:36:15;;;;;;;49.23;38.53;;;18.90;99.90;;;;;;4931730;28;20456;-83
2023/06/29 02:38:41;;;;;;;48.92;39.65;;;18.80;99.90;;;;;;4921562;28;20444;-80
2023/06/29 02:41:07;;;;;;;47.45;38.10;;;18.90;99.90;;;;;;4930789;28;20439;-81
2023/06/29 02:43:33;;;;;;;48.17;39.87;;;18.80;99.90;;;;;;4936926;28;20431;-81
2023/06/29 02:45:59;;;;;;;44.43;36.27;;;18.80;99.90;;;;;;4929602;28;20437;-81
2023/06/29 02:48:25;;;;;;;46.03;39.03;;;18.90;99.90;;;;;;4896281;28;20448;-81
2023/06/29 02:50:51;;;;;;;41.60;35.90;;;18.80;99.90;;;;;;4937336;28;20438;-80
2023/06/29 02:53:17;;;;;;;40.13;34.42;;;18.90;99.90;;;;;;4937301;28;20439;-81
2023/06/29 02:55:43;;;;;;;41.00;34.57;;;18.80;99.90;;;;;;4930848;28;20432;-80
2023/06/29 02:58:09;;;;;;;44.93;35.70;;;18.90;99.90;;;;;;4934474;29;20435;-80
2023/06/29 03:00:35;;;;;;;40.65;35.05;;;18.90;99.90;;;;;;4909279;29;20419;-79
2023/06/29 03:03:00;;;;;;;41.88;34.05;;;18.90;99.90;;;;;;4916366;29;20456;-81
2023/06/29 03:05:26;;;;;;;40.92;33.83;;;18.90;99.90;;;;;;4934003;28;20432;-80
2023/06/29 03:07:52;;;;;;;40.97;33.93;;;18.90;99.90;;;;;;4936324;28;20448;-80
2023/06/29 03:10:17;;;;;;;45.20;34.77;;;18.90;99.90;;;;;;4934606;28;20432;-81
2023/06/29 03:12:43;;;;;;;42.63;34.75;;;18.80;99.90;;;;;;4936364;28;20435;-79
2023/06/29 03:15:09;;;;;;;41.33;34.30;;;18.80;99.90;;;;;;4916941;29;20970;-80
2023/06/29 03:17:35;;;;;;;43.60;34.58;;;18.80;99.90;;;;;;4916984;28;20966;-81
2023/06/29 03:20:01;;;;;;;42.87;34.30;;;18.80;99.90;;;;;;4932324;28;20427;-81
2023/06/29 03:22:26;;;;;;;40.27;34.90;;;18.90;99.90;;;;;;4929632;28;20433;-82
2023/06/29 03:24:52;;;;;;;40.78;33.85;;;17.80;99.90;;;;;;4927296;28;20506;-82
2023/06/29 03:27:19;;;;;;;40.70;32.70;;;18.80;99.90;;;;;;4935467;28;20498;-81
2023/06/29 03:29:49;;;;;;;47.13;34.83;;;19.00;99.90;;;;;;4935925;28;20917;-79
2023/06/29 03:32:14;;;;;;;41.20;35.17;;;18.90;99.90;;;;;;4927172;29;20435;-83
2023/06/29 03:34:40;;;;;;;41.80;32.95;;;18.90;99.90;;;;;;4908274;29;20431;-82
2023/06/29 03:37:06;;;;;;;40.17;34.70;;;18.90;99.90;;;;;;4913245;28;20497;-80
2023/06/29 03:39:31;;;;;;;41.30;33.67;;;18.90;99.90;;;;;;4930320;29;20437;-80
2023/06/29 03:41:57;;;;;;;36.83;32.43;;;18.80;99.90;;;;;;4933470;29;20443;-82
2023/06/29 03:44:23;;;;;;;39.03;31.90;;;18.90;99.90;;;;;;4920902;29;20509;-81
2023/06/29 03:46:48;;;;;;;40.13;31.33;;;18.90;99.90;;;;;;4936243;28;20439;-79
2023/06/29 03:49:14;;;;;;;41.33;33.10;;;18.90;99.90;;;;;;4935494;28;20436;-80
2023/06/29 03:51:40;;;;;;;39.33;32.60;;;19.00;99.90;;;;;;4920594;28;20527;-80
2023/06/29 03:54:06;;;;;;;41.55;33.15;;;18.90;99.90;;;;;;4925965;28;20436;-80
2023/06/29 03:56:32;;;;;;;36.30;30.45;;;18.90;99.90;;;;;;4935444;29;20431;-81
2023/06/29 03:58:58;;;;;;;39.65;33.33;;;18.90;99.90;;;;;;4935058;28;20439;-80
2023/06/29 04:01:23;;;;;;;39.25;31.75;;;19.10;99.90;;;;;;4934930;29;20432;-81
2023/06/29 04:03:50;;;;;;;36.95;31.13;;;18.90;99.90;;;;;;4935924;29;20443;-82
2023/06/29 04:06:16;;;;;;;38.38;30.88;;;19.00;99.90;;;;;;4934061;28;20518;-81
2023/06/29 04:08:41;;;;;;;40.17;31.83;;;19.10;99.90;;;;;;4911980;28;20536;-81
2023/06/29 04:11:09;;;;;;;40.40;32.80;;;19.00;99.90;;;;;;4932972;29;20422;-81
2023/06/29 04:13:35;;;;;;;39.42;31.70;;;18.90;99.90;;;;;;4913551;28;20460;-79
2023/06/29 04:16:01;;;;;;;36.42;30.88;;;19.00;99.90;;;;;;4931294;28;20423;-80
2023/06/29 04:18:26;;;;;;;35.58;29.17;;;18.90;99.90;;;;;;4936694;29;20821;-79
2023/06/29 04:20:53;;;;;;;35.92;30.17;;;19.00;99.90;;;;;;4936989;28;20431;-79
2023/06/29 04:23:19;;;;;;;36.30;29.63;;;19.10;99.90;;;;;;4934254;28;20510;-80
2023/06/29 04:25:44;;;;;;;36.10;30.07;;;19.10;99.90;;;;;;4927483;28;20536;-81
2023/06/29 04:28:14;;;;;;;33.97;29.20;;;19.10;99.90;;;;;;4933293;28;20436;-81
2023/06/29 04:30:43;;;;;;;31.75;27.60;;;19.10;99.90;;;;;;4930091;29;20442;-81
2023/06/29 04:33:14;;;;;;;32.10;28.52;;;19.30;99.90;;;;;;4922631;28;20542;-81
2023/06/29 04:35:41;;;;;;;35.30;28.25;;;19.20;99.90;;;;;;4901859;28;20448;-79
2023/06/29 04:38:10;;;;;;;32.33;27.37;;;19.20;99.90;;;;;;4917959;28;20457;-81
2023/06/29 04:40:39;;;;;;;34.00;27.00;;;19.20;99.90;;;;;;4907711;28;20463;-79
2023/06/29 04:43:06;;;;;;;32.17;27.75;;;19.20;99.90;;;;;;4939747;28;20428;-81
2023/06/29 04:45:32;;;;;;;29.52;25.60;;;19.20;99.90;;;;;;4935436;29;20518;-79
2023/06/29 04:47:59;;;;;;;28.67;25.63;;;19.20;99.90;;;;;;4937534;28;20451;-78
2023/06/29 04:50:31;;;;;;;30.77;26.40;;;19.20;99.90;;;;;;4938465;28;20591;-80
2023/06/29 04:52:58;;;;;;;31.53;26.87;;;19.20;99.90;;;;;;4939204;28;20446;-80
2023/06/29 04:55:25;;;;;;;31.00;26.52;;;19.10;99.90;;;;;;4937315;29;20424;-82
2023/06/29 04:57:51;;;;;;;29.05;25.33;;;19.10;99.90;;;;;;4937298;28;20444;-79
2023/06/29 05:00:19;;;;;;;32.70;25.73;;;19.20;99.90;;;;;;4928086;29;20435;-79
2023/06/29 05:02:45;;;;;;;29.23;24.65;;;19.30;99.90;;;;;;4933072;28;20442;-81
2023/06/29 05:05:11;;;;;;;28.67;25.42;;;19.20;99.90;;;;;;4933477;29;20459;-79
2023/06/29 05:07:41;;;;;;;28.98;25.05;;;19.30;99.90;;;;;;4931202;28;20532;-79
2023/06/29 05:10:07;;;;;;;31.30;25.02;;;19.30;99.90;;;;;;4932527;28;20428;-81
2023/06/29 05:12:33;;;;;;;30.90;23.58;;;19.30;99.90;;;;;;4937529;28;20419;-83
2023/06/29 05:14:59;;;;;;;32.13;25.10;;;19.30;99.90;;;;;;4934784;28;20805;-80
2023/06/29 05:17:25;;;;;;;30.38;25.75;;;19.20;99.90;;;;;;4934270;28;20428;-80
2023/06/29 05:19:51;;;;;;;29.92;24.58;;;19.30;99.90;;;;;;4925803;29;20431;-78
2023/06/29 05:22:17;;;;;;;29.50;24.40;;;19.40;99.90;;;;;;4934968;28;20435;-78
2023/06/29 05:24:42;;;;;;;29.70;23.00;;;19.40;99.90;;;;;;4919948;28;20970;-78
2023/06/29 05:27:08;;;;;;;26.77;23.13;;;19.40;99.90;;;;;;4936491;28;20432;-79
2023/06/29 05:29:35;;;;;;;28.37;24.10;;;19.50;99.90;;;;;;4936470;29;20503;-80
2023/06/29 05:32:01;;;;;;;26.83;23.98;;;19.40;99.90;;;;;;4923526;28;20443;-79
2023/06/29 05:34:27;;;;;;;28.93;24.30;;;19.60;99.90;;;;;;4936112;29;20439;-78
2023/06/29 05:36:53;;;;;;;29.67;25.10;;;19.50;99.90;;;;;;4933399;29;20440;-78
2023/06/29 05:39:18;;;;;;;26.55;23.48;;;19.40;99.90;;;;;;4936813;28;20433;-82
2023/06/29 05:41:44;;;;;;;27.38;23.45;;;19.50;99.90;;;;;;4937754;28;20446;-82
2023/06/29 05:44:10;;;;;;;27.60;23.48;;;19.40;99.90;;;;;;4937609;28;20523;-81
2023/06/29 05:46:36;;;;;;;26.83;23.93;;;19.50;99.90;;;;;;4938459;29;20435;-83
2023/06/29 05:49:02;;;;;;;26.30;23.13;;;19.60;99.90;;;;;;4938482;29;20435;-83
2023/06/29 05:51:28;;;;;;;26.70;22.45;;;19.60;99.90;;;;;;4913488;28;21006;-81
2023/06/29 05:53:55;;;;;;;29.75;23.95;;;19.80;99.90;;;;;;4938207;29;20447;-79
2023/06/29 05:56:21;;;;;;;29.60;24.87;;;19.70;99.90;;;;;;4936725;28;20434;-81
2023/06/29 05:58:47;;;;;;;28.60;23.60;;;19.80;99.90;;;;;;4930105;28;20433;-78
2023/06/29 06:01:13;;;;;;;25.63;22.92;;;19.80;99.90;;;;;;4935334;28;20432;-79
2023/06/29 06:03:39;;;;;;;25.80;22.25;;;19.70;99.90;;;;;;4921403;28;20772;-80
2023/06/29 06:06:05;;;;;;;30.20;22.67;;;19.80;99.90;;;;;;4935306;29;20440;-78
2023/06/29 06:08:31;;;;;;;27.77;22.77;;;19.90;99.90;;;;;;4935484;28;20830;-77
2023/06/29 06:10:58;;;;;;;28.98;23.63;;;19.90;99.90;;;;;;4935225;29;20435;-79
2023/06/29 06:13:24;;;;;;;26.95;22.70;;;20.00;99.90;;;;;;4936643;28;20436;-79
2023/06/29 06:15:49;;;;;;;27.90;23.08;;;20.00;99.90;;;;;;4933457;28;20435;-80
2023/06/29 06:18:15;;;;;;;29.25;24.83;;;20.10;99.90;;;;;;4982137;28;20455;-78
2023/06/29 06:20:41;;;;;;;27.65;23.48;;;20.20;99.90;;;;;;4933696;29;20550;-79
2023/06/29 06:23:06;;;;;;;29.10;25.27;;;20.10;99.90;;;;;;4934943;28;20499;-80
2023/06/29 06:25:32;;;;;;;29.13;23.95;;;20.10;99.90;;;;;;4934024;28;20486;-79
2023/06/29 06:27:58;;;;;;;26.08;22.98;;;20.00;99.90;;;;;;4935523;28;20470;-79
2023/06/29 06:30:24;;;;;;;29.30;24.20;;;20.00;99.90;;;;;;4934993;29;20487;-78
2023/06/29 06:32:50;;;;;;;28.05;24.45;;;20.00;99.90;;;;;;4934268;28;20435;-79
2023/06/29 06:35:16;;;;;;;28.27;23.45;;;20.00;99.90;;;;;;4919432;29;20420;-78
2023/06/29 06:37:42;;;;;;;27.63;22.85;;;19.90;99.90;;;;;;4936341;28;20438;-78
2023/06/29 06:40:11;;;;;;;29.55;23.90;;;19.90;99.90;;;;;;4935718;29;20435;-80
2023/06/29 06:42:39;;;;;;;27.08;24.02;;;19.90;99.90;;;;;;4925499;29;20439;-80
2023/06/29 06:45:05;;;;;;;28.58;23.90;;;20.10;99.90;;;;;;4902422;28;20435;-79
2023/06/29 06:47:32;;;;;;;30.23;25.10;;;20.10;99.90;;;;;;4936205;28;20444;-80
2023/06/29 06:49:58;;;;;;;30.57;24.80;;;20.10;99.90;;;;;;4936995;28;20435;-80
2023/06/29 06:52:24;;;;;;;31.70;23.83;;;19.70;99.90;;;;;;4935574;29;20436;-79
2023/06/29 06:54:51;;;;;;;29.63;24.83;;;20.20;99.90;;;;;;4934788;29;20561;-80
2023/06/29 06:57:17;;;;;;;31.77;24.38;;;20.20;99.90;;;;;;4917606;29;20482;-78
2023/06/29 06:59:43;;;;;;;27.33;22.97;;;20.30;99.90;;;;;;4934105;29;20462;-78
2023/06/29 07:02:08;;;;;;;33.40;24.00;;;20.30;99.90;;;;;;4931941;28;20794;-80
2023/06/29 07:04:34;;;;;;;32.35;25.35;;;19.90;99.90;;;;;;4935523;29;20432;-78
2023/06/29 07:07:00;;;;;;;27.50;23.55;;;20.20;99.90;;;;;;4933888;28;20468;-79
2023/06/29 07:09:26;;;;;;;28.77;23.90;;;20.40;99.90;;;;;;4921727;29;21032;-80
2023/06/29 07:11:51;;;;;;;29.00;25.37;;;20.60;99.90;;;;;;4910870;29;20428;-80
2023/06/29 07:14:17;;;;;;;30.33;24.88;;;20.70;99.90;;;;;;4915756;29;20883;-80
2023/06/29 07:16:43;;;;;;;33.20;25.20;;;20.70;99.90;;;;;;4932047;28;20444;-77
2023/06/29 07:19:13;;;;;;;29.40;25.83;;;20.70;99.90;;;;;;4937462;28;20498;-80
2023/06/29 07:21:40;;;;;;;30.35;24.77;;;20.70;99.90;;;;;;4935907;28;20446;-80
2023/06/29 07:24:06;;;;;;;28.02;24.20;;;20.60;99.90;;;;;;4905509;29;20424;-79
2023/06/29 07:26:32;;;;;;;33.38;27.08;;;20.70;99.90;;;;;;4937337;29;20428;-79
2023/06/29 07:28:58;;;;;;;31.85;26.83;;;20.70;99.90;;;;;;4937129;28;20443;-81
2023/06/29 07:31:28;;;;;;;31.63;25.50;;;20.60;99.90;;;;;;4934196;29;20797;-78
2023/06/29 07:33:55;;;;;;;29.88;25.52;;;20.70;99.90;;;;;;4942765;28;20946;-82
2023/06/29 07:36:22;;;;;;;29.35;24.42;;;20.80;99.90;;;;;;4941148;28;20562;-81
2023/06/29 07:38:48;;;;;;;29.65;25.45;;;20.70;99.90;;;;;;4980083;28;20432;-80
2023/06/29 07:41:15;;;;;;;32.20;25.55;;;21.00;99.90;;;;;;4976702;28;20496;-80
2023/06/29 07:43:45;;;;;;;34.27;27.37;;;20.50;99.90;;;;;;4941685;29;20485;-81
2023/06/29 07:46:11;;;;;;;29.27;24.58;;;20.80;99.90;;;;;;4975507;28;20431;-81
2023/06/29 07:48:37;;;;;;;29.70;25.30;;;20.70;99.90;;;;;;4940259;29;20436;-80
2023/06/29 07:51:06;;;;;;;28.53;25.23;;;20.90;99.90;;;;;;4921869;29;20481;-82
2023/06/29 07:53:31;;;;;;;29.17;25.45;;;21.00;99.90;;;;;;4917943;29;20965;-81
2023/06/29 07:55:59;;;;;;;30.30;25.17;;;21.10;99.90;;;;;;4934792;29;20440;-82
2023/06/29 07:58:26;;;;;;;29.73;26.60;;;21.00;99.90;;;;;;4918626;28;20455;-80
2023/06/29 08:00:52;;;;;;;31.48;26.92;;;20.70;99.90;;;;;;4936210;28;20440;-79
2023/06/29 08:03:18;;;;;;;30.60;26.90;;;21.00;99.90;;;;;;4917775;28;20454;-81
2023/06/29 08:05:44;;;;;;;31.95;27.63;;;21.00;99.90;;;;;;4935161;28;20486;-81
2023/06/29 08:08:10;;;;;;;33.13;27.00;;;21.20;99.90;;;;;;4926270;28;20440;-82
2023/06/29 08:10:36;;;;;;;31.95;28.52;;;21.30;99.90;;;;;;4922288;28;20510;-79
2023/06/29 08:13:01;;;;;;;34.30;27.35;;;21.30;99.90;;;;;;4940890;28;20491;-80
2023/06/29 08:15:27;;;;;;;32.97;27.67;;;21.20;99.90;;;;;;4904798;29;20440;-81
2023/06/29 08:17:53;;;;;;;31.33;27.73;;;21.40;99.90;;;;;;4940392;29;21103;-80
2023/06/29 08:20:18;;;;;;;34.97;28.57;;;21.60;99.90;;;;;;4922750;29;20423;-81
2023/06/29 08:22:45;;;;;;;31.37;27.83;;;21.50;99.90;;;;;;4925266;29;20869;-80
2023/06/29 08:25:11;;;;;;;34.53;29.30;;;21.50;99.90;;;;;;4939559;28;20423;-82
2023/06/29 08:27:36;;;;;;;36.37;29.77;;;21.50;99.90;;;;;;4938851;29;20867;-80
2023/06/29 08:30:03;;;;;;;35.88;31.70;;;21.40;99.90;;;;;;4939127;29;20833;-82
2023/06/29 08:32:28;;;;;;;35.90;30.00;;;21.40;99.90;;;;;;4939174;28;20759;-82
2023/06/29 08:34:54;;;;;;;35.33;29.20;;;21.30;99.90;;;;;;4941393;29;20432;-82
2023/06/29 08:37:20;;;;;;;34.58;29.92;;;21.20;99.90;;;;;;4938355;28;20545;-78
2023/06/29 08:39:46;;;;;;;38.97;33.00;;;21.10;99.90;;;;;;4934978;28;20434;-83
2023/06/29 08:42:12;;;;;;;38.28;31.58;;;21.10;99.90;;;;;;4929508;29;20516;-84
2023/06/29 08:44:38;;;;;;;37.97;32.78;;;21.00;99.90;;;;;;4906486;28;20458;-82
2023/06/29 08:47:05;;;;;;;33.23;29.60;;;21.10;99.90;;;;;;4907467;29;20511;-82
2023/06/29 08:49:35;;;;;;;35.28;29.77;;;21.10;99.90;;;;;;4936403;29;20440;-80
2023/06/29 08:52:03;;;;;;;39.35;29.83;;;21.20;99.90;;;;;;4933707;29;20945;-80
2023/06/29 08:54:31;;;;;;;33.78;29.73;;;21.10;99.90;;;;;;4918823;29;20433;-82
2023/06/29 08:56:59;;;;;;;32.67;29.17;;;21.20;99.90;;;;;;4925790;29;20428;-79
2023/06/29 08:59:26;;;;;;;31.75;28.35;;;21.10;99.90;;;;;;4921821;28;20420;-81
2023/06/29 09:01:52;;;;;;;31.85;28.55;;;21.10;99.90;;;;;;4924135;28;20437;-80
2023/06/29 09:04:24;;;;;;;31.77;28.42;;;21.00;99.90;;;;;;4916331;29;20468;-79
2023/06/29 09:06:53;;;;;;;31.97;27.73;;;20.90;99.90;;;;;;4922207;29;20471;-80
2023/06/29 09:09:20;;;;;;;32.17;28.67;;;21.00;99.90;;;;;;4933013;28;20520;-80
2023/06/29 09:11:46;;;;;;;33.42;29.23;;;21.00;99.90;;;;;;4916739;28;20507;-77
2023/06/29 09:14:11;;;;;;;35.13;28.92;;;21.10;99.90;;;;;;4930447;28;20447;-77
2023/06/29 09:16:50;;;;;;;32.77;28.53;;;21.00;99.90;;;;;;4930194;28;20813;-77
2023/06/29 09:19:18;;;;;;;31.88;28.42;;;21.10;99.90;;;;;;4929958;29;20444;-78
2023/06/29 09:21:47;;;;;;;30.52;27.35;;;21.10;99.90;;;;;;4932066;29;20537;-76
2023/06/29 09:24:18;;;;;;;30.77;27.42;;;21.20;99.90;;;;;;4931894;29;20439;-77
2023/06/29 09:26:48;;;;;;;31.60;27.70;;;21.10;99.90;;;;;;4934386;28;20427;-77
2023/06/29 09:29:14;;;;;;;31.67;28.40;;;21.10;99.90;;;;;;4933775;28;20463;-78
2023/06/29 09:31:39;;;;;;;30.45;27.15;;;21.20;99.90;;;;;;4933820;28;20485;-78
2023/06/29 09:34:22;;;;;;;30.73;27.63;;;21.20;99.90;;;;;;4932978;29;21114;-77
2023/06/29 09:36:48;;;;;;;31.95;28.55;;;21.20;99.90;;;;;;4934296;28;20432;-77
2023/06/29 09:39:15;;;;;;;31.40;28.02;;;21.10;99.90;;;;;;4933020;29;20426;-77
2023/06/29 09:42:00;;;;;;;33.13;29.20;;;21.00;99.90;;;;;;4918664;29;20519;-78
2023/06/29 09:44:26;;;;;;;32.72;28.70;;;21.00;99.90;;;;;;4913726;29;20420;-77
2023/06/29 09:47:04;;;;;;;33.38;29.80;;;21.10;99.90;;;;;;4919179;29;20486;-78
2023/06/29 09:49:31;;;;;;;32.47;27.80;;;21.20;99.90;;;;;;4933329;28;20431;-77
2023/06/29 09:52:04;;;;;;;34.00;30.42;;;21.10;99.90;;;;;;4933793;29;20473;-78
2023/06/29 09:54:36;;;;;;;34.50;30.92;;;21.00;99.90;;;;;;4917333;28;20444;-78
2023/06/29 09:57:07;;;;;;;32.60;29.17;;;20.80;99.90;;;;;;4931399;28;20481;-78
2023/06/29 09:59:39;;;;;;;34.20;30.60;;;21.00;99.90;;;;;;4930672;29;20438;-79
2023/06/29 10:02:06;;;;;;;33.60;30.08;;;20.90;99.90;;;;;;4932066;28;20511;-78
2023/06/29 10:04:31;;;;;;;33.50;30.13;;;20.90;99.90;;;;;;4926764;29;20423;-79
2023/06/29 10:07:07;;;;;;;35.75;32.03;;;20.80;99.90;;;;;;4933903;28;20444;-79
2023/06/29 10:09:38;;;;;;;33.53;30.13;;;20.90;99.90;;;;;;4932200;28;20442;-78
2023/06/29 10:12:06;;;;;;;34.85;31.15;;;20.90;99.90;;;;;;4932342;28;20481;-78
2023/06/29 10:14:34;;;;;;;35.20;31.45;;;20.70;99.90;;;;;;4906754;28;20445;-79
2023/06/29 10:17:01;;;;;;;33.88;30.23;;;20.80;99.90;;;;;;4901037;28;20440;-76
2023/06/29 10:19:28;;;;;;;34.45;30.67;;;21.00;99.90;;;;;;4923088;28;20429;-75
2023/06/29 10:22:00;;;;;;;35.95;31.30;;;21.00;99.90;;;;;;4910332;28;20449;-78
2023/06/29 10:24:52;;;;;;;37.90;31.45;;;21.20;99.90;;;;;;4920469;28;20441;-77
2023/06/29 10:27:20;;;;;;;35.10;31.23;;;21.30;99.90;;;;;;4927290;28;20487;-79
2023/06/29 10:29:48;;;;;;;34.80;30.58;;;21.30;99.90;;;;;;4931376;28;20995;-80
2023/06/29 10:32:40;;;;;;;33.58;29.88;;;21.30;99.90;;;;;;4931330;28;20466;-78
2023/06/29 10:35:11;;;;;;;35.17;31.38;;;21.30;99.90;;;;;;4932508;29;20432;-75
2023/06/29 10:37:42;;;;;;;34.10;30.43;;;21.20;99.90;;;;;;4930969;28;20523;-76
2023/06/29 10:40:10;;;;;;;38.72;34.63;;;21.30;99.90;;;;;;4931085;28;20431;-77
2023/06/29 10:42:39;;;;;;;38.22;34.15;;;21.40;99.90;;;;;;4931268;29;20435;-77
2023/06/29 10:45:20;;;;;;;39.33;35.05;;;21.40;99.90;;;;;;4930157;29;20458;-78
2023/06/29 10:47:58;;;;;;;37.95;33.92;;;21.60;99.90;;;;;;4931141;29;20444;-78
2023/06/29 10:50:43;;;;;;;36.47;32.53;;;21.50;99.90;;;;;;4913034;29;20435;-77
2023/06/29 10:53:12;;;;;;;37.10;33.28;;;21.50;99.90;;;;;;4913436;28;20508;-78
2023/06/29 10:55:40;;;;;;;38.60;34.53;;;21.50;99.90;;;;;;4926224;28;20435;-77
2023/06/29 10:58:22;;;;;;;38.17;33.97;;;21.50;99.90;;;;;;4930200;29;20435;-77
2023/06/29 11:00:49;;;;;;;36.95;33.10;;;21.30;99.90;;;;;;4931510;28;20431;-76
2023/06/29 11:03:15;;;;;;;40.10;35.50;;;21.20;99.90;;;;;;4930022;28;20429;-77
2023/06/29 11:05:41;;;;;;;37.80;33.80;;;21.10;99.90;;;;;;4923590;29;20521;-78
2023/06/29 11:08:07;;;;;;;39.58;35.30;;;21.30;99.90;;;;;;4928804;28;20483;-78
2023/06/29 11:10:34;;;;;;;40.53;33.60;;;21.20;99.90;;;;;;4917410;28;20494;-77
2023/06/29 11:12:59;;;;;;;38.28;33.47;;;21.40;99.90;;;;;;4931132;28;20844;-76
2023/06/29 11:15:27;;;;;;;37.83;33.85;;;21.40;99.90;;;;;;4930821;28;20439;-78
2023/06/29 11:17:53;;;;;;;41.25;35.65;;;21.60;99.90;;;;;;4931252;28;20515;-78
2023/06/29 11:20:21;;;;;;;38.88;34.70;;;21.80;99.90;;;;;;4930910;28;20431;-78
2023/06/29 11:22:49;;;;;;;38.90;35.05;;;21.90;99.90;;;;;;4931019;29;20886;-78
2023/06/29 11:25:16;;;;;;;39.25;35.15;;;21.90;99.90;;;;;;4921388;28;20961;-77
2023/06/29 11:27:45;;;;;;;40.17;35.92;;;22.00;99.90;;;;;;4930438;29;20467;-77
2023/06/29 11:30:12;;;;;;;40.78;36.50;;;22.10;99.90;;;;;;4987199;28;20428;-78
2023/06/29 11:32:41;;;;;;;41.45;37.08;;;22.20;99.90;;;;;;4934600;28;20855;-78
2023/06/29 11:35:12;;;;;;;40.50;36.10;;;22.50;99.90;;;;;;4932917;28;20426;-79
2023/06/29 11:37:39;;;;;;;39.22;35.15;;;22.50;99.90;;;;;;4931548;29;20566;-77
2023/06/29 11:40:15;;;;;;;41.20;36.78;;;22.50;99.90;;;;;;4927574;28;20429;-79
2023/06/29 11:42:42;;;;;;;39.75;35.10;;;22.30;99.90;;;;;;4929258;28;20443;-86
2023/06/29 11:45:09;;;;;;;42.20;35.50;;;22.20;99.90;;;;;;4936636;28;20423;-81
2023/06/29 11:47:35;;;;;;;40.72;35.58;;;22.60;99.90;;;;;;4938396;28;20600;-80
2023/06/29 11:50:03;;;;;;;39.63;35.40;;;23.20;99.90;;;;;;4930388;28;20822;-83
2023/06/29 11:52:32;;;;;;;41.30;36.85;;;23.40;99.90;;;;;;4938436;29;20439;-81
2023/06/29 11:54:59;;;;;;;40.53;36.28;;;23.40;99.90;;;;;;4932282;28;20539;-79
2023/06/29 11:57:25;;;;;;;43.05;38.60;;;23.40;99.90;;;;;;4932785;28;20466;-80
2023/06/29 11:59:51;;;;;;;48.63;36.30;;;23.40;99.90;;;;;;4916114;29;20421;-80
2023/06/29 12:02:19;;;;;;;37.60;31.87;;;23.50;99.90;;;;;;4916588;29;20932;-81
2023/06/29 12:04:56;;;;;;;35.72;31.83;;;23.40;99.90;;;;;;4902365;29;20450;-80
2023/06/29 12:07:36;;;;;;;35.92;31.25;;;23.10;99.90;;;;;;4935249;29;20462;-79
2023/06/29 12:10:04;;;;;;;36.75;32.47;;;23.10;99.90;;;;;;4935607;29;20770;-79
2023/06/29 12:12:37;;;;;;;37.33;33.40;;;23.30;99.90;;;;;;4918059;29;20419;-80
2023/06/29 12:15:12;;;;;;;35.45;31.63;;;23.50;99.90;;;;;;4982225;28;20415;-79
2023/06/29 12:17:38;;;;;;;37.50;33.40;;;23.90;99.90;;;;;;5017092;28;20411;-81
2023/06/29 12:20:12;;;;;;;36.08;31.67;;;24.10;99.90;;;;;;5000162;28;20413;-81
2023/06/29 12:22:38;;;;;;;38.40;34.30;;;24.10;99.90;;;;;;4956866;28;20407;-80
2023/06/29 12:25:04;;;;;;;37.72;33.70;;;23.80;99.90;;;;;;4935428;28;20415;-82
2023/06/29 12:27:30;;;;;;;38.15;33.97;;;24.20;99.90;;;;;;4919995;28;20451;-83
2023/06/29 12:29:56;;;;;;;37.87;33.77;;;24.10;99.90;;;;;;4938501;28;20552;-81